Terminal Aerodrome Forecast
Issued by NWS

Home | Current Version | Previous Version | Graphics & Text | Print | Product List | Glossary On
Versions: 1 2 3 4 5 6 7 8 9 10 11 12 13 14 15 16 17 18 19 20 21 22 23 24 25 26 27 28 29 30 31 32 33
000
FTUS43 KABR 222320
TAFPIR
TAF
KPIR 222320Z 2300/2324 07011KT P6SM OVC009
     FM230300 07013KT 6SM BR OVC005
     FM230900 08012KT 3SM BR VCSH OVC003
     FM231700 11015G22KT P6SM BKN008=

USA.gov is the U.S. government's official web portal to all federal, state and local government web resources and services.